Time;durP1;ratioP1;P1;durP2;ratioP2;P2;SDS_P1;SDS_P2;PMS_P1;PMS_P2;Temp;Humidity;BMP_temperature;BMP_pressure;BME280_temperature;BME280_humidity;BME280_pressure;Samples;Min_cycle;Max_cycle;Signal;HPM_P1;HPM_P2
2021/03/27 00:00:29;;;;;;;2.0;1.9;;;;;;;7.5;68.6;101080.0;;;;
2021/03/27 00:02:28;;;;;;;2.0;1.9;;;;;;;7.6;68.7;101080.0;;;;
2021/03/27 00:04:35;;;;;;;2.0;1.9;;;;;;;7.5;69.6;101080.0;;;;
2021/03/27 00:06:38;;;;;;;4.1;3.7;;;;;;;7.4;69.2;101080.0;;;;
2021/03/27 00:12:31;;;;;;;4.1;3.7;;;;;;;7.5;69.3;101070.0;;;;
2021/03/27 00:14:37;;;;;;;4.1;3.7;;;;;;;7.3;69.2;101070.0;;;;
2021/03/27 00:22:32;;;;;;;4.1;3.7;;;;;;;7.1;69.3;101070.0;;;;
2021/03/27 00:24:32;;;;;;;4.1;3.7;;;;;;;7.2;69.5;101070.0;;;;
2021/03/27 00:26:29;;;;;;;6.2;5.6;;;;;;;7.3;70.0;101070.0;;;;
2021/03/27 00:28:33;;;;;;;6.2;5.6;;;;;;;7.1;70.5;101070.0;;;;
2021/03/27 00:32:30;;;;;;;6.2;5.6;;;;;;;7.2;71.5;101080.0;;;;
2021/03/27 00:36:29;;;;;;;6.2;5.6;;;;;;;7.1;70.1;101080.0;;;;
2021/03/27 00:38:32;;;;;;;6.2;5.6;;;;;;;7.2;70.9;101090.0;;;;
2021/03/27 00:40:27;;;;;;;6.2;5.6;;;;;;;7.1;70.6;101080.0;;;;
2021/03/27 00:42:28;;;;;;;6.2;5.6;;;;;;;7.3;70.2;101080.0;;;;
2021/03/27 00:48:28;;;;;;;6.7;5.5;;;;;;;7.2;70.9;101080.0;;;;
2021/03/27 00:54:30;;;;;;;6.7;5.5;;;;;;;7.0;72.1;101090.0;;;;
2021/03/27 00:56:28;;;;;;;6.7;5.5;;;;;;;7.1;71.5;101090.0;;;;
2021/03/27 01:00:35;;;;;;;6.7;5.5;;;;;;;7.0;72.1;101090.0;;;;
2021/03/27 01:06:30;;;;;;;8.8;7.5;;;;;;;6.9;72.1;101090.0;;;;
2021/03/27 01:08:26;;;;;;;8.8;7.5;;;;;;;7.0;71.6;101090.0;;;;
2021/03/27 01:12:29;;;;;;;8.8;7.5;;;;;;;6.8;72.8;101090.0;;;;
2021/03/27 01:16:31;;;;;;;8.8;7.5;;;;;;;6.9;72.6;101090.0;;;;
2021/03/27 01:18:28;;;;;;;8.8;7.5;;;;;;;6.8;72.3;101100.0;;;;
2021/03/27 01:20:27;;;;;;;8.8;7.5;;;;;;;6.7;72.3;101100.0;;;;
2021/03/27 01:22:26;;;;;;;8.8;7.5;;;;;;;6.6;72.4;101090.0;;;;
2021/03/27 01:28:29;;;;;;;8.7;7.8;;;;;;;6.5;73.9;101100.0;;;;
2021/03/27 01:30:40;;;;;;;8.7;7.8;;;;;;;6.6;73.7;101110.0;;;;
2021/03/27 01:34:31;;;;;;;8.7;7.8;;;;;;;6.7;72.8;101100.0;;;;
2021/03/27 01:38:32;;;;;;;8.7;7.8;;;;;;;6.8;72.6;101100.0;;;;
2021/03/27 01:40:34;;;;;;;8.7;7.8;;;;;;;6.7;72.2;101100.0;;;;
2021/03/27 01:42:38;;;;;;;8.7;7.8;;;;;;;6.4;73.8;101100.0;;;;
2021/03/27 01:44:44;;;;;;;6.0;5.2;;;;;;;6.6;73.4;101100.0;;;;
2021/03/27 01:46:38;;;;;;;6.0;5.2;;;;;;;6.7;72.7;101110.0;;;;
2021/03/27 01:50:33;;;;;;;6.0;5.2;;;;;;;6.6;72.7;101110.0;;;;
2021/03/27 01:52:37;;;;;;;6.0;5.2;;;;;;;6.5;73.3;101110.0;;;;
2021/03/27 01:56:34;;;;;;;6.0;5.2;;;;;;;6.4;73.6;101120.0;;;;
2021/03/27 02:00:30;;;;;;;6.0;5.2;;;;;;;6.5;73.7;101120.0;;;;
2021/03/27 02:02:32;;;;;;;6.0;5.2;;;;;;;6.3;73.7;101130.0;;;;
2021/03/27 02:04:29;;;;;;;9.8;6.0;;;;;;;6.4;73.3;101120.0;;;;
2021/03/27 02:06:29;;;;;;;9.8;6.0;;;;;;;6.3;73.9;101120.0;;;;
2021/03/27 02:08:35;;;;;;;9.8;6.0;;;;;;;6.4;73.5;101130.0;;;;
2021/03/27 02:10:37;;;;;;;9.8;6.0;;;;;;;6.5;73.1;101130.0;;;;
2021/03/27 02:14:32;;;;;;;9.8;6.0;;;;;;;6.4;72.7;101130.0;;;;
2021/03/27 02:16:30;;;;;;;9.8;6.0;;;;;;;6.3;73.5;101140.0;;;;
2021/03/27 02:18:34;;;;;;;9.8;6.0;;;;;;;6.2;73.7;101140.0;;;;
2021/03/27 02:22:27;;;;;;;9.8;6.0;;;;;;;6.3;73.3;101140.0;;;;
2021/03/27 02:26:39;;;;;;;9.6;6.6;;;;;;;6.2;73.4;101140.0;;;;
2021/03/27 02:28:38;;;;;;;9.6;6.6;;;;;;;6.3;73.4;101140.0;;;;
2021/03/27 02:32:38;;;;;;;9.6;6.6;;;;;;;6.2;72.6;101140.0;;;;
2021/03/27 02:34:35;;;;;;;9.6;6.6;;;;;;;6.1;73.3;101150.0;;;;
2021/03/27 02:38:30;;;;;;;9.6;6.6;;;;;;;5.9;73.9;101150.0;;;;
2021/03/27 02:42:33;;;;;;;9.6;6.6;;;;;;;6.0;73.2;101150.0;;;;
2021/03/27 02:44:30;;;;;;;7.1;6.4;;;;;;;6.1;72.3;101160.0;;;;
2021/03/27 02:46:30;;;;;;;7.1;6.4;;;;;;;6.0;73.0;101160.0;;;;
2021/03/27 02:48:38;;;;;;;7.1;6.4;;;;;;;6.1;72.7;101160.0;;;;
2021/03/27 02:50:38;;;;;;;7.1;6.4;;;;;;;6.0;72.7;101160.0;;;;
2021/03/27 02:54:30;;;;;;;7.1;6.4;;;;;;;6.1;72.6;101160.0;;;;
2021/03/27 02:56:29;;;;;;;7.1;6.4;;;;;;;6.2;72.0;101170.0;;;;
2021/03/27 02:58:28;;;;;;;7.1;6.4;;;;;;;6.1;72.0;101170.0;;;;
2021/03/27 03:00:34;;;;;;;7.1;6.4;;;;;;;5.9;72.6;101170.0;;;;
2021/03/27 03:02:32;;;;;;;7.1;6.4;;;;;;;6.1;72.3;101170.0;;;;
2021/03/27 03:06:31;;;;;;;12.7;6.7;;;;;;;5.9;72.7;101170.0;;;;
2021/03/27 03:10:31;;;;;;;12.7;6.7;;;;;;;5.8;73.0;101170.0;;;;
2021/03/27 03:12:32;;;;;;;12.7;6.7;;;;;;;5.9;73.2;101170.0;;;;
2021/03/27 03:16:29;;;;;;;12.7;6.7;;;;;;;6.0;72.9;101170.0;;;;
2021/03/27 03:20:30;;;;;;;12.7;6.7;;;;;;;6.1;72.0;101180.0;;;;
2021/03/27 03:22:33;;;;;;;12.7;6.7;;;;;;;6.0;72.5;101170.0;;;;
2021/03/27 03:24:32;;;;;;;11.5;6.6;;;;;;;6.2;71.1;101170.0;;;;
2021/03/27 03:26:35;;;;;;;11.5;6.6;;;;;;;6.0;72.0;101180.0;;;;
2021/03/27 03:28:28;;;;;;;11.5;6.6;;;;;;;5.9;72.6;101180.0;;;;
2021/03/27 03:34:39;;;;;;;11.5;6.6;;;;;;;5.8;72.6;101190.0;;;;
2021/03/27 03:36:33;;;;;;;11.5;6.6;;;;;;;5.7;73.1;101190.0;;;;
2021/03/27 03:38:40;;;;;;;11.5;6.6;;;;;;;5.8;73.2;101200.0;;;;
2021/03/27 03:40:31;;;;;;;11.5;6.6;;;;;;;5.9;72.3;101200.0;;;;
2021/03/27 03:42:44;;;;;;;11.5;6.6;;;;;;;5.7;72.7;101200.0;;;;
2021/03/27 03:44:44;;;;;;;11.8;6.3;;;;;;;5.8;72.6;101210.0;;;;
2021/03/27 03:46:31;;;;;;;11.8;6.3;;;;;;;5.7;73.4;101210.0;;;;
2021/03/27 03:48:43;;;;;;;11.8;6.3;;;;;;;5.5;74.1;101220.0;;;;
2021/03/27 03:50:30;;;;;;;11.8;6.3;;;;;;;5.8;73.1;101210.0;;;;
2021/03/27 03:52:31;;;;;;;11.8;6.3;;;;;;;5.7;73.8;101220.0;;;;
2021/03/27 03:58:44;;;;;;;11.8;6.3;;;;;;;5.8;73.5;101220.0;;;;
2021/03/27 04:02:28;;;;;;;11.8;6.3;;;;;;;5.9;73.2;101230.0;;;;
2021/03/27 04:08:31;;;;;;;10.3;6.2;;;;;;;6.0;72.8;101220.0;;;;
2021/03/27 04:10:28;;;;;;;10.3;6.2;;;;;;;5.9;72.3;101220.0;;;;
2021/03/27 04:14:39;;;;;;;10.3;6.2;;;;;;;6.0;72.0;101230.0;;;;
2021/03/27 04:16:27;;;;;;;10.3;6.2;;;;;;;5.9;72.5;101240.0;;;;
2021/03/27 04:18:28;;;;;;;10.3;6.2;;;;;;;5.8;72.6;101240.0;;;;
2021/03/27 04:20:29;;;;;;;10.3;6.2;;;;;;;5.9;72.2;101240.0;;;;
2021/03/27 04:22:28;;;;;;;10.3;6.2;;;;;;;5.7;71.9;101240.0;;;;
2021/03/27 04:24:28;;;;;;;5.1;4.2;;;;;;;5.8;71.9;101230.0;;;;
2021/03/27 04:30:32;;;;;;;5.1;4.2;;;;;;;5.9;71.2;101240.0;;;;
2021/03/27 04:32:31;;;;;;;5.1;4.2;;;;;;;5.8;71.4;101240.0;;;;
2021/03/27 04:36:30;;;;;;;5.1;4.2;;;;;;;5.9;71.7;101250.0;;;;
2021/03/27 04:38:33;;;;;;;5.1;4.2;;;;;;;5.8;71.7;101250.0;;;;
2021/03/27 04:42:29;;;;;;;5.1;4.2;;;;;;;5.9;71.3;101260.0;;;;
2021/03/27 04:44:34;;;;;;;8.7;5.4;;;;;;;5.8;71.7;101260.0;;;;
2021/03/27 04:46:30;;;;;;;8.7;5.4;;;;;;;5.9;71.3;101260.0;;;;
2021/03/27 04:48:33;;;;;;;8.7;5.4;;;;;;;5.8;71.7;101250.0;;;;
2021/03/27 04:50:41;;;;;;;8.7;5.4;;;;;;;5.9;71.1;101260.0;;;;
2021/03/27 04:52:36;;;;;;;8.7;5.4;;;;;;;5.8;71.8;101260.0;;;;
2021/03/27 04:54:33;;;;;;;8.7;5.4;;;;;;;5.9;72.0;101270.0;;;;
2021/03/27 04:58:35;;;;;;;8.7;5.4;;;;;;;6.0;72.6;101260.0;;;;
2021/03/27 05:02:32;;;;;;;8.7;5.4;;;;;;;5.9;72.2;101270.0;;;;
2021/03/27 05:04:32;;;;;;;11.6;7.2;;;;;;;5.7;72.7;101270.0;;;;
2021/03/27 05:06:37;;;;;;;11.6;7.2;;;;;;;5.8;72.5;101280.0;;;;
2021/03/27 05:08:38;;;;;;;11.6;7.2;;;;;;;5.7;72.8;101280.0;;;;
2021/03/27 05:10:33;;;;;;;11.6;7.2;;;;;;;5.8;72.3;101280.0;;;;
2021/03/27 05:14:40;;;;;;;11.6;7.2;;;;;;;5.9;72.0;101290.0;;;;
2021/03/27 05:24:30;;;;;;;11.3;6.3;;;;;;;5.7;73.8;101320.0;;;;
2021/03/27 05:26:37;;;;;;;11.3;6.3;;;;;;;5.5;74.0;101320.0;;;;
2021/03/27 05:28:44;;;;;;;11.3;6.3;;;;;;;5.3;74.0;101320.0;;;;
2021/03/27 05:30:30;;;;;;;11.3;6.3;;;;;;;5.2;74.3;101310.0;;;;
2021/03/27 05:34:32;;;;;;;11.3;6.3;;;;;;;5.0;74.9;101310.0;;;;
2021/03/27 05:36:33;;;;;;;11.3;6.3;;;;;;;5.3;73.7;101320.0;;;;
2021/03/27 05:38:34;;;;;;;11.3;6.3;;;;;;;5.4;73.7;101340.0;;;;
2021/03/27 05:40:41;;;;;;;11.3;6.3;;;;;;;5.3;73.6;101340.0;;;;
2021/03/27 05:42:44;;;;;;;11.3;6.3;;;;;;;5.2;73.5;101340.0;;;;
2021/03/27 05:44:44;;;;;;;9.8;5.7;;;;;;;5.4;73.1;101350.0;;;;
2021/03/27 05:46:44;;;;;;;9.8;5.7;;;;;;;5.2;74.2;101370.0;;;;
2021/03/27 05:48:48;;;;;;;9.8;5.7;;;;;;;5.1;74.1;101390.0;;;;
2021/03/27 05:50:36;;;;;;;9.8;5.7;;;;;;;4.5;74.7;101410.0;;;;
2021/03/27 05:52:44;;;;;;;9.8;5.7;;;;;;;4.0;76.0;101420.0;;;;
2021/03/27 05:54:41;;;;;;;9.8;5.7;;;;;;;3.8;76.6;101420.0;;;;
2021/03/27 05:58:44;;;;;;;9.8;5.7;;;;;;;3.7;77.5;101400.0;;;;
2021/03/27 06:00:35;;;;;;;9.8;5.7;;;;;;;3.9;76.5;101410.0;;;;
2021/03/27 06:02:41;;;;;;;9.8;5.7;;;;;;;4.1;76.5;101410.0;;;;
2021/03/27 06:04:44;;;;;;;6.8;4.8;;;;;;;4.3;75.5;101410.0;;;;
2021/03/27 06:08:41;;;;;;;6.8;4.8;;;;;;;4.2;76.4;101410.0;;;;
2021/03/27 06:12:37;;;;;;;6.8;4.8;;;;;;;4.4;75.9;101420.0;;;;
2021/03/27 06:14:34;;;;;;;6.8;4.8;;;;;;;4.2;76.4;101420.0;;;;
2021/03/27 06:16:37;;;;;;;6.8;4.8;;;;;;;4.3;76.1;101430.0;;;;
2021/03/27 06:18:44;;;;;;;6.8;4.8;;;;;;;4.2;76.9;101440.0;;;;
2021/03/27 06:22:42;;;;;;;6.8;4.8;;;;;;;4.1;76.9;101450.0;;;;
2021/03/27 06:24:39;;;;;;;6.7;3.8;;;;;;;4.3;76.8;101450.0;;;;
2021/03/27 06:26:37;;;;;;;6.7;3.8;;;;;;;4.4;76.3;101460.0;;;;
2021/03/27 06:34:43;;;;;;;6.7;3.8;;;;;;;4.5;76.5;101450.0;;;;
2021/03/27 06:36:39;;;;;;;6.7;3.8;;;;;;;4.4;76.3;101450.0;;;;
2021/03/27 06:38:42;;;;;;;6.7;3.8;;;;;;;4.5;76.3;101450.0;;;;
2021/03/27 06:46:40;;;;;;;5.9;4.4;;;;;;;4.6;75.6;101460.0;;;;
2021/03/27 06:48:44;;;;;;;5.9;4.4;;;;;;;4.5;76.0;101470.0;;;;
2021/03/27 06:52:39;;;;;;;5.9;4.4;;;;;;;4.3;76.5;101480.0;;;;
2021/03/27 06:54:42;;;;;;;5.9;4.4;;;;;;;4.4;76.7;101480.0;;;;
2021/03/27 07:00:38;;;;;;;5.9;4.4;;;;;;;4.5;76.4;101490.0;;;;
2021/03/27 07:02:40;;;;;;;5.9;4.4;;;;;;;4.4;76.5;101480.0;;;;
2021/03/27 07:04:44;;;;;;;9.9;4.7;;;;;;;4.5;76.5;101480.0;;;;
2021/03/27 07:06:40;;;;;;;9.9;4.7;;;;;;;4.4;76.9;101490.0;;;;
2021/03/27 07:10:44;;;;;;;9.9;4.7;;;;;;;4.5;77.2;101500.0;;;;
2021/03/27 07:12:42;;;;;;;9.9;4.7;;;;;;;4.4;77.6;101500.0;;;;
2021/03/27 07:16:34;;;;;;;9.9;4.7;;;;;;;4.5;77.8;101500.0;;;;
2021/03/27 07:18:39;;;;;;;9.9;4.7;;;;;;;4.7;77.1;101500.0;;;;
2021/03/27 07:20:30;;;;;;;9.9;4.7;;;;;;;4.8;76.9;101500.0;;;;
2021/03/27 07:22:30;;;;;;;9.9;4.7;;;;;;;4.7;77.8;101510.0;;;;
2021/03/27 07:30:33;;;;;;;9.2;4.9;;;;;;;4.8;78.3;101530.0;;;;
2021/03/27 07:34:41;;;;;;;9.2;4.9;;;;;;;5.0;78.9;101520.0;;;;
2021/03/27 07:36:39;;;;;;;9.2;4.9;;;;;;;5.1;78.6;101530.0;;;;
2021/03/27 07:38:36;;;;;;;9.2;4.9;;;;;;;5.2;78.0;101540.0;;;;
2021/03/27 07:42:40;;;;;;;9.2;4.9;;;;;;;5.3;78.0;101550.0;;;;
2021/03/27 07:48:40;;;;;;;10.3;5.3;;;;;;;5.4;77.0;101560.0;;;;
2021/03/27 07:54:44;;;;;;;10.3;5.3;;;;;;;5.2;77.2;101590.0;;;;
2021/03/27 08:00:38;;;;;;;10.3;5.3;;;;;;;4.8;76.0;101600.0;;;;
2021/03/27 08:02:41;;;;;;;4.7;2.9;;;;;;;4.6;75.1;101600.0;;;;
2021/03/27 08:04:44;;;;;;;4.7;2.9;;;;;;;4.5;75.8;101620.0;;;;
2021/03/27 08:06:33;;;;;;;4.7;2.9;;;;;;;4.4;75.5;101620.0;;;;
2021/03/27 08:12:44;;;;;;;4.7;2.9;;;;;;;4.3;74.6;101650.0;;;;
2021/03/27 08:14:38;;;;;;;4.7;2.9;;;;;;;4.2;74.8;101650.0;;;;
2021/03/27 08:18:44;;;;;;;4.7;2.9;;;;;;;4.1;75.6;101650.0;;;;
2021/03/27 08:20:40;;;;;;;4.7;2.9;;;;;;;4.2;75.4;101650.0;;;;
2021/03/27 08:22:39;;;;;;;3.1;2.8;;;;;;;4.1;75.4;101650.0;;;;
2021/03/27 08:34:44;;;;;;;3.1;2.8;;;;;;;4.2;75.8;101650.0;;;;
2021/03/27 08:38:32;;;;;;;3.1;2.8;;;;;;;4.1;75.5;101650.0;;;;
2021/03/27 08:40:41;;;;;;;3.1;2.8;;;;;;;4.3;74.8;101660.0;;;;
2021/03/27 08:46:43;;;;;;;6.4;3.5;;;;;;;4.2;75.8;101660.0;;;;
2021/03/27 08:48:32;;;;;;;6.4;3.5;;;;;;;4.3;76.5;101660.0;;;;
2021/03/27 08:50:44;;;;;;;6.4;3.5;;;;;;;4.6;77.3;101660.0;;;;
2021/03/27 08:52:42;;;;;;;6.4;3.5;;;;;;;4.8;76.5;101650.0;;;;
2021/03/27 08:54:42;;;;;;;6.4;3.5;;;;;;;5.1;75.9;101660.0;;;;
2021/03/27 08:56:44;;;;;;;6.4;3.5;;;;;;;5.0;76.0;101660.0;;;;
2021/03/27 08:58:44;;;;;;;6.4;3.5;;;;;;;5.2;75.9;101670.0;;;;
2021/03/27 09:00:41;;;;;;;6.4;3.5;;;;;;;5.1;76.2;101670.0;;;;
2021/03/27 09:02:38;;;;;;;8.8;3.8;;;;;;;5.2;75.9;101670.0;;;;
2021/03/27 09:04:42;;;;;;;8.8;3.8;;;;;;;5.4;75.4;101680.0;;;;
2021/03/27 09:06:31;;;;;;;8.8;3.8;;;;;;;5.5;76.1;101680.0;;;;
2021/03/27 09:08:33;;;;;;;8.8;3.8;;;;;;;5.7;75.9;101680.0;;;;
2021/03/27 09:10:39;;;;;;;8.8;3.8;;;;;;;5.8;75.2;101680.0;;;;
2021/03/27 09:12:43;;;;;;;8.8;3.8;;;;;;;5.7;76.1;101690.0;;;;
2021/03/27 09:14:38;;;;;;;8.8;3.8;;;;;;;5.8;75.6;101690.0;;;;
2021/03/27 09:16:36;;;;;;;8.8;3.8;;;;;;;5.9;75.9;101690.0;;;;
2021/03/27 09:18:44;;;;;;;8.8;3.8;;;;;;;6.1;75.8;101700.0;;;;
2021/03/27 09:20:40;;;;;;;8.8;3.8;;;;;;;6.2;75.9;101690.0;;;;
2021/03/27 09:22:44;;;;;;;11.4;4.5;;;;;;;6.3;75.1;101700.0;;;;
2021/03/27 09:26:44;;;;;;;11.4;4.5;;;;;;;6.4;75.4;101690.0;;;;
2021/03/27 09:30:33;;;;;;;11.4;4.5;;;;;;;6.3;74.2;101700.0;;;;
2021/03/27 09:32:33;;;;;;;11.4;4.5;;;;;;;6.2;75.1;101720.0;;;;
2021/03/27 09:36:34;;;;;;;11.4;4.5;;;;;;;6.3;74.4;101720.0;;;;
2021/03/27 09:38:31;;;;;;;11.4;4.5;;;;;;;6.4;73.7;101720.0;;;;
2021/03/27 09:42:41;;;;;;;8.7;4.0;;;;;;;6.5;73.0;101720.0;;;;
2021/03/27 09:48:36;;;;;;;8.7;4.0;;;;;;;6.3;73.7;101760.0;;;;
2021/03/27 09:52:37;;;;;;;8.7;4.0;;;;;;;6.1;73.2;101760.0;;;;
2021/03/27 09:54:33;;;;;;;8.7;4.0;;;;;;;5.9;73.6;101760.0;;;;
2021/03/27 09:56:33;;;;;;;8.7;4.0;;;;;;;5.8;74.2;101760.0;;;;
2021/03/27 09:58:39;;;;;;;8.7;4.0;;;;;;;6.1;74.4;101770.0;;;;
2021/03/27 10:00:44;;;;;;;8.7;4.0;;;;;;;6.0;74.0;101780.0;;;;
2021/03/27 10:06:40;;;;;;;12.7;4.1;;;;;;;6.2;73.4;101780.0;;;;
2021/03/27 10:08:32;;;;;;;12.7;4.1;;;;;;;6.3;73.8;101790.0;;;;
2021/03/27 10:10:38;;;;;;;12.7;4.1;;;;;;;6.4;74.0;101800.0;;;;
2021/03/27 10:12:27;;;;;;;12.7;4.1;;;;;;;6.3;73.8;101790.0;;;;
2021/03/27 10:14:27;;;;;;;12.7;4.1;;;;;;;6.6;74.0;101800.0;;;;
2021/03/27 10:16:33;;;;;;;12.7;4.1;;;;;;;6.5;72.5;101790.0;;;;
2021/03/27 10:20:35;;;;;;;12.7;4.1;;;;;;;6.7;72.3;101800.0;;;;
2021/03/27 10:24:32;;;;;;;9.3;3.9;;;;;;;6.8;71.1;101800.0;;;;
2021/03/27 10:26:32;;;;;;;9.3;3.9;;;;;;;6.9;71.5;101800.0;;;;
2021/03/27 10:30:32;;;;;;;9.3;3.9;;;;;;;7.0;69.1;101810.0;;;;
2021/03/27 10:32:44;;;;;;;9.3;3.9;;;;;;;7.1;67.6;101810.0;;;;
2021/03/27 10:34:37;;;;;;;9.3;3.9;;;;;;;7.2;66.7;101810.0;;;;
2021/03/27 10:38:37;;;;;;;9.3;3.9;;;;;;;7.3;66.7;101820.0;;;;
2021/03/27 10:40:37;;;;;;;9.3;3.9;;;;;;;7.0;63.1;101830.0;;;;
2021/03/27 10:42:44;;;;;;;5.9;2.8;;;;;;;6.8;63.7;101830.0;;;;
2021/03/27 10:44:33;;;;;;;5.9;2.8;;;;;;;6.7;62.9;101830.0;;;;
2021/03/27 10:46:29;;;;;;;5.9;2.8;;;;;;;6.8;64.3;101840.0;;;;
2021/03/27 10:48:44;;;;;;;5.9;2.8;;;;;;;6.9;62.5;101850.0;;;;
2021/03/27 10:50:31;;;;;;;5.9;2.8;;;;;;;7.2;63.2;101860.0;;;;
2021/03/27 10:52:35;;;;;;;5.9;2.8;;;;;;;7.3;61.6;101840.0;;;;
2021/03/27 10:56:36;;;;;;;5.9;2.8;;;;;;;7.5;60.5;101850.0;;;;
2021/03/27 10:58:32;;;;;;;5.9;2.8;;;;;;;7.7;61.7;101840.0;;;;
2021/03/27 11:00:35;;;;;;;5.9;2.8;;;;;;;7.9;62.0;101860.0;;;;
2021/03/27 11:02:42;;;;;;;9.5;3.6;;;;;;;8.0;62.2;101860.0;;;;
2021/03/27 11:04:40;;;;;;;9.5;3.6;;;;;;;8.1;63.2;101860.0;;;;
2021/03/27 11:06:43;;;;;;;9.5;3.6;;;;;;;8.0;60.8;101870.0;;;;
2021/03/27 11:10:43;;;;;;;9.5;3.6;;;;;;;7.9;58.8;101880.0;;;;
2021/03/27 11:12:39;;;;;;;9.5;3.6;;;;;;;8.0;58.4;101880.0;;;;
2021/03/27 11:14:44;;;;;;;9.5;3.6;;;;;;;7.9;56.0;101890.0;;;;
2021/03/27 11:16:44;;;;;;;9.5;3.6;;;;;;;7.7;57.8;101910.0;;;;
2021/03/27 11:18:41;;;;;;;9.5;3.6;;;;;;;7.5;60.3;101920.0;;;;
2021/03/27 11:20:42;;;;;;;9.5;3.6;;;;;;;7.2;61.5;101920.0;;;;
2021/03/27 11:22:42;;;;;;;6.6;3.2;;;;;;;7.3;62.3;101920.0;;;;
2021/03/27 11:24:33;;;;;;;6.6;3.2;;;;;;;7.2;61.5;101930.0;;;;
2021/03/27 11:28:29;;;;;;;6.6;3.2;;;;;;;7.0;61.0;101930.0;;;;
2021/03/27 11:32:31;;;;;;;6.6;3.2;;;;;;;6.9;60.3;101940.0;;;;
2021/03/27 11:34:29;;;;;;;6.6;3.2;;;;;;;7.0;61.3;101940.0;;;;
2021/03/27 11:36:31;;;;;;;6.6;3.2;;;;;;;7.1;63.8;101940.0;;;;
2021/03/27 11:40:28;;;;;;;6.6;3.2;;;;;;;7.3;63.7;101940.0;;;;
2021/03/27 11:46:29;;;;;;;7.1;3.4;;;;;;;7.5;62.1;101950.0;;;;
2021/03/27 11:48:34;;;;;;;7.1;3.4;;;;;;;7.4;61.6;101950.0;;;;
2021/03/27 11:52:30;;;;;;;7.1;3.4;;;;;;;7.6;61.3;101950.0;;;;
2021/03/27 11:56:36;;;;;;;7.1;3.4;;;;;;;7.5;61.1;101960.0;;;;
2021/03/27 12:02:44;;;;;;;6.5;3.0;;;;;;;7.9;59.6;101960.0;;;;
2021/03/27 12:04:44;;;;;;;6.5;3.0;;;;;;;8.1;57.6;101950.0;;;;
2021/03/27 12:08:31;;;;;;;6.5;3.0;;;;;;;8.3;57.2;101970.0;;;;
2021/03/27 12:16:34;;;;;;;6.5;3.0;;;;;;;8.4;56.3;101980.0;;;;
2021/03/27 12:20:30;;;;;;;6.5;3.0;;;;;;;8.7;56.3;101990.0;;;;
2021/03/27 12:22:30;;;;;;;5.9;3.0;;;;;;;8.9;57.3;102000.0;;;;
2021/03/27 12:24:35;;;;;;;5.9;3.0;;;;;;;8.7;55.0;102000.0;;;;
2021/03/27 12:26:31;;;;;;;5.9;3.0;;;;;;;8.6;55.0;101990.0;;;;
2021/03/27 12:30:35;;;;;;;5.9;3.0;;;;;;;8.5;54.4;102010.0;;;;
2021/03/27 12:36:29;;;;;;;5.9;3.0;;;;;;;8.7;54.7;102010.0;;;;
2021/03/27 12:38:43;;;;;;;5.9;3.0;;;;;;;9.0;55.1;102000.0;;;;
2021/03/27 12:46:41;;;;;;;7.2;3.1;;;;;;;8.9;53.8;102010.0;;;;
2021/03/27 12:48:35;;;;;;;7.2;3.1;;;;;;;8.7;54.5;102020.0;;;;
2021/03/27 12:50:30;;;;;;;7.2;3.1;;;;;;;8.6;53.3;102020.0;;;;
2021/03/27 12:52:42;;;;;;;7.2;3.1;;;;;;;8.7;54.9;102030.0;;;;
2021/03/27 12:54:36;;;;;;;7.2;3.1;;;;;;;8.9;55.0;102030.0;;;;
2021/03/27 12:56:42;;;;;;;7.2;3.1;;;;;;;9.0;54.4;102030.0;;;;
2021/03/27 12:58:38;;;;;;;7.2;3.1;;;;;;;8.9;53.9;102030.0;;;;
2021/03/27 13:02:39;;;;;;;7.0;3.2;;;;;;;9.0;54.4;102030.0;;;;
2021/03/27 13:04:44;;;;;;;7.0;3.2;;;;;;;9.1;53.6;102040.0;;;;
2021/03/27 13:06:35;;;;;;;7.0;3.2;;;;;;;9.0;54.2;102040.0;;;;
2021/03/27 13:08:35;;;;;;;7.0;3.2;;;;;;;9.1;55.1;102050.0;;;;
2021/03/27 13:10:36;;;;;;;7.0;3.2;;;;;;;9.2;54.6;102040.0;;;;
2021/03/27 13:14:44;;;;;;;7.0;3.2;;;;;;;9.5;53.5;102050.0;;;;
2021/03/27 13:16:27;;;;;;;7.0;3.2;;;;;;;9.8;53.7;102050.0;;;;
2021/03/27 13:18:39;;;;;;;7.0;3.2;;;;;;;9.7;52.2;102050.0;;;;
2021/03/27 13:20:30;;;;;;;7.0;3.2;;;;;;;9.9;50.5;102050.0;;;;
2021/03/27 13:28:31;;;;;;;7.5;3.2;;;;;;;9.7;49.1;102050.0;;;;
2021/03/27 13:32:29;;;;;;;7.5;3.2;;;;;;;9.9;49.9;102060.0;;;;
2021/03/27 13:34:30;;;;;;;7.5;3.2;;;;;;;10.1;49.6;102060.0;;;;
2021/03/27 13:36:29;;;;;;;7.5;3.2;;;;;;;10.2;48.9;102060.0;;;;
2021/03/27 13:38:32;;;;;;;7.5;3.2;;;;;;;10.1;49.2;102070.0;;;;
2021/03/27 13:40:29;;;;;;;7.5;3.2;;;;;;;10.2;48.2;102060.0;;;;
2021/03/27 13:48:37;;;;;;;7.4;3.1;;;;;;;10.0;48.3;102090.0;;;;
2021/03/27 13:50:40;;;;;;;7.4;3.1;;;;;;;9.8;47.9;102090.0;;;;
2021/03/27 13:52:28;;;;;;;7.4;3.1;;;;;;;9.9;47.8;102090.0;;;;
2021/03/27 13:56:29;;;;;;;7.4;3.1;;;;;;;10.1;47.9;102080.0;;;;
2021/03/27 13:58:30;;;;;;;7.4;3.1;;;;;;;10.0;47.5;102090.0;;;;
2021/03/27 14:00:29;;;;;;;7.4;3.1;;;;;;;9.9;47.8;102100.0;;;;
2021/03/27 14:02:42;;;;;;;6.4;3.1;;;;;;;9.7;46.6;102100.0;;;;
2021/03/27 14:04:30;;;;;;;6.4;3.1;;;;;;;9.5;46.3;102100.0;;;;
2021/03/27 14:08:39;;;;;;;6.4;3.1;;;;;;;9.6;45.3;102110.0;;;;
2021/03/27 14:10:34;;;;;;;6.4;3.1;;;;;;;9.9;48.0;102120.0;;;;
2021/03/27 14:14:31;;;;;;;6.4;3.1;;;;;;;10.0;48.5;102110.0;;;;
2021/03/27 14:16:41;;;;;;;6.4;3.1;;;;;;;9.9;47.4;102120.0;;;;
2021/03/27 14:18:42;;;;;;;6.4;3.1;;;;;;;10.0;48.5;102120.0;;;;
2021/03/27 14:22:39;;;;;;;7.3;2.9;;;;;;;9.9;46.8;102140.0;;;;
2021/03/27 14:28:34;;;;;;;7.3;2.9;;;;;;;10.1;47.1;102140.0;;;;
2021/03/27 14:30:41;;;;;;;7.3;2.9;;;;;;;10.2;47.7;102160.0;;;;
2021/03/27 14:34:31;;;;;;;7.3;2.9;;;;;;;10.1;46.9;102150.0;;;;
2021/03/27 14:36:29;;;;;;;7.3;2.9;;;;;;;9.9;47.4;102140.0;;;;
2021/03/27 14:38:44;;;;;;;7.3;2.9;;;;;;;10.1;46.9;102150.0;;;;
2021/03/27 14:40:34;;;;;;;7.3;2.9;;;;;;;10.3;48.2;102150.0;;;;
2021/03/27 14:42:34;;;;;;;7.9;2.9;;;;;;;10.1;48.2;102160.0;;;;
2021/03/27 14:44:35;;;;;;;7.9;2.9;;;;;;;10.0;48.1;102160.0;;;;
2021/03/27 14:46:38;;;;;;;7.9;2.9;;;;;;;10.1;48.2;102160.0;;;;
2021/03/27 14:48:31;;;;;;;7.9;2.9;;;;;;;10.2;49.1;102150.0;;;;
2021/03/27 14:50:31;;;;;;;7.9;2.9;;;;;;;10.3;49.4;102150.0;;;;
2021/03/27 14:52:31;;;;;;;7.9;2.9;;;;;;;10.4;49.4;102150.0;;;;
2021/03/27 14:54:38;;;;;;;7.9;2.9;;;;;;;10.6;50.9;102160.0;;;;
2021/03/27 14:56:28;;;;;;;7.9;2.9;;;;;;;10.5;48.7;102160.0;;;;
2021/03/27 14:58:34;;;;;;;7.9;2.9;;;;;;;10.3;46.6;102150.0;;;;
2021/03/27 15:00:36;;;;;;;7.9;2.9;;;;;;;10.4;48.9;102150.0;;;;
2021/03/27 15:02:32;;;;;;;8.3;3.5;;;;;;;10.6;47.0;102160.0;;;;
2021/03/27 15:04:30;;;;;;;8.3;3.5;;;;;;;10.5;47.5;102160.0;;;;
2021/03/27 15:06:31;;;;;;;8.3;3.5;;;;;;;10.3;45.4;102170.0;;;;
2021/03/27 15:08:35;;;;;;;8.3;3.5;;;;;;;10.4;46.6;102170.0;;;;
2021/03/27 15:10:37;;;;;;;8.3;3.5;;;;;;;10.6;46.1;102170.0;;;;
2021/03/27 15:12:27;;;;;;;8.3;3.5;;;;;;;10.4;45.5;102170.0;;;;
2021/03/27 15:16:33;;;;;;;8.3;3.5;;;;;;;10.3;45.9;102180.0;;;;
2021/03/27 15:24:32;;;;;;;8.4;2.7;;;;;;;10.4;46.1;102190.0;;;;
2021/03/27 15:28:30;;;;;;;8.4;2.7;;;;;;;10.1;45.9;102190.0;;;;
2021/03/27 15:32:38;;;;;;;8.4;2.7;;;;;;;10.2;46.5;102190.0;;;;
2021/03/27 15:34:36;;;;;;;8.4;2.7;;;;;;;10.3;46.9;102190.0;;;;
2021/03/27 15:40:29;;;;;;;8.4;2.7;;;;;;;10.0;44.8;102200.0;;;;
2021/03/27 15:42:30;;;;;;;6.3;3.1;;;;;;;10.1;46.1;102200.0;;;;
2021/03/27 15:46:30;;;;;;;6.3;3.1;;;;;;;10.2;45.2;102210.0;;;;
2021/03/27 15:52:28;;;;;;;6.3;3.1;;;;;;;10.4;46.1;102210.0;;;;
2021/03/27 15:54:39;;;;;;;6.3;3.1;;;;;;;10.3;45.1;102210.0;;;;
2021/03/27 15:58:29;;;;;;;6.3;3.1;;;;;;;10.6;48.2;102210.0;;;;
2021/03/27 16:00:36;;;;;;;6.3;3.1;;;;;;;10.5;49.3;102220.0;;;;
2021/03/27 16:02:41;;;;;;;10.4;3.8;;;;;;;10.8;46.7;102220.0;;;;
2021/03/27 16:04:39;;;;;;;10.4;3.8;;;;;;;10.9;48.8;102210.0;;;;
2021/03/27 16:06:34;;;;;;;10.4;3.8;;;;;;;11.0;45.9;102220.0;;;;
2021/03/27 16:08:29;;;;;;;10.4;3.8;;;;;;;10.7;44.8;102230.0;;;;
2021/03/27 16:10:31;;;;;;;10.4;3.8;;;;;;;10.9;46.9;102230.0;;;;
2021/03/27 16:14:44;;;;;;;10.4;3.8;;;;;;;11.0;45.8;102240.0;;;;
2021/03/27 16:16:36;;;;;;;10.4;3.8;;;;;;;11.2;44.0;102240.0;;;;
2021/03/27 16:18:41;;;;;;;10.4;3.8;;;;;;;11.1;44.1;102240.0;;;;
2021/03/27 16:20:39;;;;;;;10.4;3.8;;;;;;;11.2;43.5;102240.0;;;;
2021/03/27 16:22:29;;;;;;;8.3;3.3;;;;;;;11.4;45.4;102250.0;;;;
2021/03/27 16:24:36;;;;;;;8.3;3.3;;;;;;;11.1;42.8;102250.0;;;;
2021/03/27 16:26:34;;;;;;;8.3;3.3;;;;;;;10.9;44.1;102260.0;;;;
2021/03/27 16:28:44;;;;;;;8.3;3.3;;;;;;;10.5;44.8;102260.0;;;;
2021/03/27 16:30:35;;;;;;;8.3;3.3;;;;;;;10.6;45.9;102260.0;;;;
2021/03/27 16:32:44;;;;;;;8.3;3.3;;;;;;;10.5;45.1;102260.0;;;;
2021/03/27 16:34:38;;;;;;;8.3;3.3;;;;;;;10.4;45.1;102260.0;;;;
2021/03/27 16:36:33;;;;;;;8.3;3.3;;;;;;;10.1;46.4;102260.0;;;;
2021/03/27 16:40:34;;;;;;;8.3;3.3;;;;;;;10.2;47.3;102270.0;;;;
2021/03/27 16:42:44;;;;;;;7.2;3.3;;;;;;;10.3;46.8;102260.0;;;;
2021/03/27 16:44:44;;;;;;;7.2;3.3;;;;;;;10.4;45.6;102270.0;;;;
2021/03/27 16:46:31;;;;;;;7.2;3.3;;;;;;;10.5;44.8;102270.0;;;;
2021/03/27 16:48:34;;;;;;;7.2;3.3;;;;;;;10.4;45.3;102270.0;;;;
2021/03/27 16:50:43;;;;;;;7.2;3.3;;;;;;;10.5;45.9;102270.0;;;;
2021/03/27 16:52:36;;;;;;;7.2;3.3;;;;;;;10.3;45.1;102280.0;;;;
2021/03/27 16:54:39;;;;;;;7.2;3.3;;;;;;;10.4;45.9;102280.0;;;;
2021/03/27 16:56:38;;;;;;;7.2;3.3;;;;;;;10.5;45.2;102280.0;;;;
2021/03/27 16:58:30;;;;;;;7.2;3.3;;;;;;;10.4;44.4;102290.0;;;;
2021/03/27 17:04:42;;;;;;;9.5;3.4;;;;;;;10.6;46.1;102290.0;;;;
2021/03/27 17:06:28;;;;;;;9.5;3.4;;;;;;;10.7;45.0;102290.0;;;;
2021/03/27 17:08:44;;;;;;;9.5;3.4;;;;;;;10.9;46.7;102290.0;;;;
2021/03/27 17:10:34;;;;;;;9.5;3.4;;;;;;;10.8;45.3;102300.0;;;;
2021/03/27 17:12:29;;;;;;;9.5;3.4;;;;;;;10.7;44.4;102300.0;;;;
2021/03/27 17:14:34;;;;;;;9.5;3.4;;;;;;;10.6;45.0;102300.0;;;;
2021/03/27 17:20:33;;;;;;;7.2;3.4;;;;;;;10.4;44.0;102310.0;;;;
2021/03/27 17:22:37;;;;;;;7.2;3.4;;;;;;;10.2;46.0;102310.0;;;;
2021/03/27 17:24:33;;;;;;;7.2;3.4;;;;;;;10.0;46.1;102320.0;;;;
2021/03/27 17:26:38;;;;;;;7.2;3.4;;;;;;;9.5;45.3;102320.0;;;;
2021/03/27 17:28:37;;;;;;;7.2;3.4;;;;;;;9.3;45.9;102320.0;;;;
2021/03/27 17:30:27;;;;;;;7.2;3.4;;;;;;;9.2;46.4;102330.0;;;;
2021/03/27 17:32:38;;;;;;;7.2;3.4;;;;;;;9.0;46.8;102320.0;;;;
2021/03/27 17:36:31;;;;;;;7.2;3.4;;;;;;;9.1;46.5;102320.0;;;;
2021/03/27 17:38:31;;;;;;;7.2;3.4;;;;;;;9.0;45.9;102330.0;;;;
2021/03/27 17:40:39;;;;;;;7.5;3.6;;;;;;;9.1;46.9;102330.0;;;;
2021/03/27 17:44:35;;;;;;;7.5;3.6;;;;;;;8.9;47.2;102330.0;;;;
2021/03/27 17:46:31;;;;;;;7.5;3.6;;;;;;;8.8;46.6;102340.0;;;;
2021/03/27 17:48:41;;;;;;;7.5;3.6;;;;;;;8.9;48.6;102340.0;;;;
2021/03/27 17:50:41;;;;;;;7.5;3.6;;;;;;;8.7;47.3;102340.0;;;;
2021/03/27 17:52:35;;;;;;;7.5;3.6;;;;;;;8.6;48.6;102340.0;;;;
2021/03/27 17:54:32;;;;;;;7.5;3.6;;;;;;;8.5;48.5;102340.0;;;;
2021/03/27 17:56:32;;;;;;;7.5;3.6;;;;;;;8.4;47.6;102350.0;;;;
2021/03/27 17:58:40;;;;;;;7.5;3.6;;;;;;;8.5;48.6;102350.0;;;;
2021/03/27 18:00:34;;;;;;;8.9;4.3;;;;;;;8.6;48.4;102350.0;;;;
2021/03/27 18:02:29;;;;;;;8.9;4.3;;;;;;;8.5;49.7;102350.0;;;;
2021/03/27 18:04:31;;;;;;;8.9;4.3;;;;;;;8.6;48.9;102350.0;;;;